Time;durP1;ratioP1;P1;durP2;ratioP2;P2;SDS_P1;SDS_P2;PMS_P1;PMS_P2;Temp;Humidity;BMP_temperature;BMP_pressure;BME280_temperature;BME280_humidity;BME280_pressure;Samples;Min_cycle;Max_cycle;Signal;HPM_P1;HPM_P2
2021/12/30 00:02:13;;;;;;;39.10;12.65;;;;;;;;;;5065667;28;20051;-64
2021/12/30 00:04:38;;;;;;;58.92;10.60;;;;;;;;;;5073007;28;20036;-63
2021/12/30 00:07:04;;;;;;;62.07;17.07;;;;;;;;;;5074594;28;20454;-64
2021/12/30 00:09:29;;;;;;;44.47;12.20;;;;;;;;;;5073236;28;21037;-64
2021/12/30 00:11:55;;;;;;;47.43;10.90;;;;;;;;;;5062861;28;20021;-62
2021/12/30 00:14:20;;;;;;;47.10;12.23;;;;;;;;;;5053176;28;20610;-62
2021/12/30 00:16:45;;;;;;;76.65;19.45;;;;;;;;;;5071608;28;20495;-62
2021/12/30 00:19:12;;;;;;;70.03;16.70;;;;;;;;;;5073249;28;20381;-61
2021/12/30 00:21:37;;;;;;;58.80;11.27;;;;;;;;;;5064858;28;20025;-62
2021/12/30 00:24:02;;;;;;;39.15;10.25;;;;;;;;;;5071315;28;20025;-62
2021/12/30 00:26:27;;;;;;;54.17;15.63;;;;;;;;;;5073850;28;20111;-62
2021/12/30 00:28:53;;;;;;;58.67;11.77;;;;;;;;;;5065817;28;20020;-62
2021/12/30 00:31:18;;;;;;;56.80;14.07;;;;;;;;;;5067889;28;20435;-61
2021/12/30 00:33:43;;;;;;;55.65;10.75;;;;;;;;;;5054269;28;20423;-61
2021/12/30 00:36:09;;;;;;;42.92;12.07;;;;;;;;;;5053210;28;20033;-61
2021/12/30 00:38:35;;;;;;;50.65;15.18;;;;;;;;;;5070120;28;20031;-62
2021/12/30 00:41:00;;;;;;;36.45;12.95;;;;;;;;;;5058415;28;20024;-63
2021/12/30 00:43:25;;;;;;;47.22;14.07;;;;;;;;;;5069908;28;20090;-62
2021/12/30 00:45:51;;;;;;;59.92;17.73;;;;;;;;;;5052545;28;20059;-62
2021/12/30 00:48:16;;;;;;;63.83;16.52;;;;;;;;;;5054241;28;20103;-63
2021/12/30 00:50:42;;;;;;;62.10;17.40;;;;;;;;;;5053239;28;20462;-63
2021/12/30 00:53:08;;;;;;;47.53;17.67;;;;;;;;;;5054272;28;21068;-62
2021/12/30 00:55:33;;;;;;;74.97;22.80;;;;;;;;;;5052503;28;20033;-61
2021/12/30 00:57:59;;;;;;;86.65;27.70;;;;;;;;;;5060090;28;20024;-62
2021/12/30 01:00:24;;;;;;;75.90;23.20;;;;;;;;;;5068715;28;20083;-62
2021/12/30 01:02:50;;;;;;;68.43;27.45;;;;;;;;;;5053982;28;20013;-61
2021/12/30 01:05:15;;;;;;;73.78;29.35;;;;;;;;;;5052317;28;20029;-61
2021/12/30 01:07:40;;;;;;;73.10;26.70;;;;;;;;;;5070116;28;20028;-61
2021/12/30 01:10:07;;;;;;;64.50;28.87;;;;;;;;;;5072265;28;20036;-61
2021/12/30 01:12:32;;;;;;;88.15;30.20;;;;;;;;;;5070878;28;20491;-62
2021/12/30 01:14:57;;;;;;;87.18;32.85;;;;;;;;;;5072065;28;20060;-61
2021/12/30 01:17:43;;;;;;;80.20;33.08;;;;;;;;;;5073451;28;20051;-61
2021/12/30 01:20:09;;;;;;;88.72;30.67;;;;;;;;;;5067852;28;20491;-61
2021/12/30 01:22:35;;;;;;;87.43;34.00;;;;;;;;;;5072989;28;20077;-61
2021/12/30 01:25:00;;;;;;;79.07;32.75;;;;;;;;;;5072107;28;20025;-64
2021/12/30 01:27:25;;;;;;;105.95;33.30;;;;;;;;;;5073205;28;20021;-64
2021/12/30 01:29:51;;;;;;;75.90;35.30;;;;;;;;;;5058249;28;20122;-64
2021/12/30 01:32:16;;;;;;;83.60;34.15;;;;;;;;;;5053473;28;20032;-63
2021/12/30 01:34:41;;;;;;;73.72;29.60;;;;;;;;;;5051692;28;20377;-63
2021/12/30 01:37:06;;;;;;;82.18;33.42;;;;;;;;;;5053131;28;20029;-64
2021/12/30 01:39:34;;;;;;;78.95;27.25;;;;;;;;;;5061937;28;20128;-64
2021/12/30 01:41:59;;;;;;;75.53;30.85;;;;;;;;;;5073244;28;20475;-63
2021/12/30 01:44:25;;;;;;;69.40;29.60;;;;;;;;;;5071112;28;20063;-62
2021/12/30 01:46:51;;;;;;;97.47;32.45;;;;;;;;;;5072973;28;20077;-63
2021/12/30 01:49:16;;;;;;;78.80;30.02;;;;;;;;;;5062717;28;20037;-63
2021/12/30 01:51:42;;;;;;;74.63;31.48;;;;;;;;;;5052282;28;20033;-61
2021/12/30 01:54:08;;;;;;;71.35;29.92;;;;;;;;;;5051845;28;20041;-63
2021/12/30 01:56:33;;;;;;;57.28;26.98;;;;;;;;;;5069317;28;20471;-63
2021/12/30 01:58:58;;;;;;;70.00;26.15;;;;;;;;;;5058865;28;20066;-63
2021/12/30 02:01:24;;;;;;;72.20;30.20;;;;;;;;;;5072810;28;20070;-63
2021/12/30 02:03:50;;;;;;;79.15;30.20;;;;;;;;;;5071239;28;20016;-63
2021/12/30 02:06:16;;;;;;;81.78;30.27;;;;;;;;;;5071997;28;20031;-63
2021/12/30 02:08:41;;;;;;;58.00;27.00;;;;;;;;;;5070610;28;20013;-64
2021/12/30 02:11:06;;;;;;;61.73;27.20;;;;;;;;;;5052781;28;20055;-64
2021/12/30 02:13:31;;;;;;;63.25;28.90;;;;;;;;;;5052172;28;20505;-63
2021/12/30 02:16:01;;;;;;;57.30;25.13;;;;;;;;;;5055165;28;20111;-64
2021/12/30 02:18:26;;;;;;;56.90;24.85;;;;;;;;;;5053073;28;20059;-62
2021/12/30 02:20:53;;;;;;;92.38;27.25;;;;;;;;;;5070250;28;20682;-63
2021/12/30 02:23:18;;;;;;;58.78;24.80;;;;;;;;;;5072358;28;20657;-63
2021/12/30 02:25:44;;;;;;;66.63;25.10;;;;;;;;;;5070737;28;20403;-63
2021/12/30 02:28:11;;;;;;;60.78;23.92;;;;;;;;;;5072052;28;20017;-63
2021/12/30 02:30:37;;;;;;;49.30;20.88;;;;;;;;;;5051615;28;20515;-62
2021/12/30 02:33:02;;;;;;;80.45;27.65;;;;;;;;;;5052319;28;20029;-63
2021/12/30 02:35:27;;;;;;;63.07;26.00;;;;;;;;;;5069608;28;20036;-62
2021/12/30 02:37:52;;;;;;;71.80;23.38;;;;;;;;;;5071865;28;20466;-63
2021/12/30 02:40:32;;;;;;;42.97;19.27;;;;;;;;;;5055896;28;20098;-63
2021/12/30 02:42:57;;;;;;;80.97;24.80;;;;;;;;;;5052597;28;20825;-62
2021/12/30 02:45:23;;;;;;;53.97;23.27;;;;;;;;;;5051987;28;20041;-62
2021/12/30 02:47:48;;;;;;;63.85;21.73;;;;;;;;;;5052613;28;20025;-62
2021/12/30 02:50:13;;;;;;;59.97;26.03;;;;;;;;;;5064793;28;20384;-63
2021/12/30 02:52:38;;;;;;;69.50;25.45;;;;;;;;;;5071590;28;20032;-62
2021/12/30 02:55:04;;;;;;;67.80;23.95;;;;;;;;;;5052249;28;20033;-64
2021/12/30 02:57:29;;;;;;;62.03;21.40;;;;;;;;;;5051128;28;20452;-64
2021/12/30 02:59:54;;;;;;;54.93;21.67;;;;;;;;;;5062099;28;20043;-64
2021/12/30 03:02:19;;;;;;;56.22;22.73;;;;;;;;;;5071327;28;20488;-64
2021/12/30 03:04:44;;;;;;;58.37;20.60;;;;;;;;;;5069590;28;20063;-64
2021/12/30 03:07:10;;;;;;;65.97;21.88;;;;;;;;;;5071443;28;20990;-64
2021/12/30 03:09:35;;;;;;;60.15;25.00;;;;;;;;;;5060695;28;20044;-64
2021/12/30 03:12:00;;;;;;;69.90;23.42;;;;;;;;;;5051265;28;20465;-64
2021/12/30 03:14:26;;;;;;;67.00;22.63;;;;;;;;;;5059787;28;20131;-64
2021/12/30 03:16:51;;;;;;;58.88;25.35;;;;;;;;;;5056483;28;20141;-64
2021/12/30 03:19:16;;;;;;;69.93;25.73;;;;;;;;;;5056013;28;20032;-64
2021/12/30 03:21:42;;;;;;;79.25;28.30;;;;;;;;;;5071091;28;20040;-64
2021/12/30 03:24:08;;;;;;;54.58;25.17;;;;;;;;;;5062358;28;20052;-64
2021/12/30 03:26:34;;;;;;;88.10;28.48;;;;;;;;;;5050706;28;20021;-64
2021/12/30 03:29:00;;;;;;;78.70;30.75;;;;;;;;;;5053848;28;20371;-64
2021/12/30 03:31:25;;;;;;;74.18;33.30;;;;;;;;;;5070419;28;20096;-64
2021/12/30 03:33:50;;;;;;;84.67;31.73;;;;;;;;;;5064431;28;20013;-64
2021/12/30 03:36:15;;;;;;;72.93;29.88;;;;;;;;;;5051125;28;20048;-64
2021/12/30 03:38:45;;;;;;;75.90;31.00;;;;;;;;;;5054163;28;20032;-64
2021/12/30 03:41:11;;;;;;;92.38;32.78;;;;;;;;;;5069731;28;20120;-64
2021/12/30 03:43:37;;;;;;;68.22;30.35;;;;;;;;;;5066831;28;20035;-64
2021/12/30 03:46:03;;;;;;;80.60;29.73;;;;;;;;;;5069385;28;20543;-64
2021/12/30 03:48:33;;;;;;;76.35;29.40;;;;;;;;;;5068751;28;20434;-64
2021/12/30 03:51:05;;;;;;;69.90;33.90;;;;;;;;;;5049239;28;20048;-64
2021/12/30 03:53:31;;;;;;;58.00;27.42;;;;;;;;;;5052654;28;20392;-64
2021/12/30 03:55:56;;;;;;;81.38;26.38;;;;;;;;;;5051214;28;20041;-64
2021/12/30 03:58:22;;;;;;;74.70;27.87;;;;;;;;;;5051064;28;20013;-64
2021/12/30 04:00:47;;;;;;;86.88;30.77;;;;;;;;;;5069228;28;20462;-64
2021/12/30 04:03:12;;;;;;;80.50;30.57;;;;;;;;;;5061953;28;20020;-64
2021/12/30 04:05:37;;;;;;;75.68;27.95;;;;;;;;;;5066974;28;20454;-63
2021/12/30 04:08:02;;;;;;;65.47;29.07;;;;;;;;;;5054655;28;20032;-62
2021/12/30 04:10:27;;;;;;;56.47;28.98;;;;;;;;;;5049274;28;20464;-64
2021/12/30 04:12:53;;;;;;;74.10;27.53;;;;;;;;;;5050602;28;20070;-64
2021/12/30 04:15:18;;;;;;;67.83;30.10;;;;;;;;;;5053198;28;20032;-64
2021/12/30 04:17:43;;;;;;;68.65;30.00;;;;;;;;;;5069575;28;20474;-64
2021/12/30 04:20:10;;;;;;;69.68;31.58;;;;;;;;;;5068811;28;20383;-64
2021/12/30 04:22:36;;;;;;;65.85;30.80;;;;;;;;;;5070716;28;20024;-64
2021/12/30 04:25:02;;;;;;;61.40;30.48;;;;;;;;;;5069380;28;20495;-64
2021/12/30 04:27:27;;;;;;;60.63;30.85;;;;;;;;;;5069075;28;20431;-63
2021/12/30 04:29:52;;;;;;;52.95;31.20;;;;;;;;;;5069009;28;20037;-63
2021/12/30 04:32:17;;;;;;;63.97;30.37;;;;;;;;;;5070991;28;20103;-62
2021/12/30 04:34:43;;;;;;;62.03;29.43;;;;;;;;;;5068385;28;20449;-62
2021/12/30 04:37:08;;;;;;;54.47;29.33;;;;;;;;;;5063353;28;20047;-62
2021/12/30 04:39:33;;;;;;;47.53;29.67;;;;;;;;;;5049116;28;20083;-62
2021/12/30 04:41:59;;;;;;;56.05;31.20;;;;;;;;;;5050476;28;20419;-62
2021/12/30 04:44:25;;;;;;;58.88;32.88;;;;;;;;;;5068130;28;20083;-63
2021/12/30 04:46:50;;;;;;;65.60;34.38;;;;;;;;;;5069902;28;20013;-62
2021/12/30 04:49:15;;;;;;;59.25;34.83;;;;;;;;;;5052425;28;20037;-62
2021/12/30 04:51:40;;;;;;;62.90;32.27;;;;;;;;;;5065402;28;20035;-62
2021/12/30 04:54:05;;;;;;;61.40;31.98;;;;;;;;;;5072707;28;20516;-62
2021/12/30 04:56:31;;;;;;;76.88;32.28;;;;;;;;;;5072782;28;20017;-62
2021/12/30 04:58:56;;;;;;;75.35;33.95;;;;;;;;;;5072475;28;20017;-61
2021/12/30 05:01:21;;;;;;;56.90;32.03;;;;;;;;;;5074274;28;20509;-62
2021/12/30 05:03:46;;;;;;;65.28;31.88;;;;;;;;;;5073237;28;20464;-61
2021/12/30 05:06:12;;;;;;;68.72;32.78;;;;;;;;;;5072555;28;20056;-61
2021/12/30 05:08:37;;;;;;;69.85;34.47;;;;;;;;;;5072185;28;20043;-62
2021/12/30 05:11:04;;;;;;;58.83;32.87;;;;;;;;;;5065503;28;20036;-63
2021/12/30 05:13:29;;;;;;;64.53;29.38;;;;;;;;;;5053752;28;20027;-62
2021/12/30 05:15:55;;;;;;;71.22;29.45;;;;;;;;;;5064209;28;20048;-62
2021/12/30 05:18:29;;;;;;;53.53;31.13;;;;;;;;;;5072651;28;20028;-62
2021/12/30 05:20:54;;;;;;;51.22;27.05;;;;;;;;;;5072355;28;20124;-63
2021/12/30 05:23:19;;;;;;;56.83;27.77;;;;;;;;;;5073618;28;20568;-63
2021/12/30 05:25:45;;;;;;;56.75;29.77;;;;;;;;;;5070022;28;20040;-63
2021/12/30 05:28:10;;;;;;;58.20;29.77;;;;;;;;;;5070432;28;20054;-63
2021/12/30 05:30:36;;;;;;;65.07;29.20;;;;;;;;;;5070756;28;20519;-63
2021/12/30 05:33:01;;;;;;;54.08;28.45;;;;;;;;;;5072223;28;20024;-63
2021/12/30 05:35:27;;;;;;;75.05;35.00;;;;;;;;;;5070740;28;20040;-63
2021/12/30 05:37:52;;;;;;;72.83;28.57;;;;;;;;;;5061422;28;20036;-62
2021/12/30 05:40:19;;;;;;;50.55;28.30;;;;;;;;;;5050436;28;20439;-62
2021/12/30 05:42:45;;;;;;;49.97;27.10;;;;;;;;;;5072820;28;20172;-59
2021/12/30 05:45:10;;;;;;;55.33;25.92;;;;;;;;;;5055412;28;20043;-59
2021/12/30 05:47:36;;;;;;;69.50;27.25;;;;;;;;;;5053082;28;20032;-58
2021/12/30 05:50:03;;;;;;;52.03;26.02;;;;;;;;;;5056092;28;20394;-59
2021/12/30 05:52:28;;;;;;;49.65;24.90;;;;;;;;;;5056444;28;20423;-59
2021/12/30 05:54:53;;;;;;;44.03;25.02;;;;;;;;;;5052612;28;20032;-59
2021/12/30 05:57:18;;;;;;;57.13;27.77;;;;;;;;;;5052774;28;20017;-59
2021/12/30 05:59:43;;;;;;;50.03;26.30;;;;;;;;;;5057299;28;20036;-59
2021/12/30 06:02:09;;;;;;;53.35;23.42;;;;;;;;;;5058729;28;20024;-59
2021/12/30 06:04:34;;;;;;;63.75;26.20;;;;;;;;;;5051183;28;20053;-58
2021/12/30 06:06:59;;;;;;;46.17;23.93;;;;;;;;;;5063672;28;20052;-59
2021/12/30 06:09:26;;;;;;;40.30;19.33;;;;;;;;;;5064337;28;20040;-59
2021/12/30 06:11:51;;;;;;;36.08;19.33;;;;;;;;;;5065528;28;20450;-58
2021/12/30 06:14:16;;;;;;;34.88;17.65;;;;;;;;;;5051153;28;20128;-59
2021/12/30 06:16:41;;;;;;;29.40;18.75;;;;;;;;;;5059142;28;20477;-59
2021/12/30 06:19:07;;;;;;;30.95;15.40;;;;;;;;;;5062396;28;20040;-59
2021/12/30 06:21:32;;;;;;;29.97;13.70;;;;;;;;;;5072538;28;20050;-59
2021/12/30 06:23:57;;;;;;;26.63;13.60;;;;;;;;;;5067469;28;20885;-59
2021/12/30 06:26:22;;;;;;;24.50;12.30;;;;;;;;;;5053055;28;20017;-59
2021/12/30 06:28:47;;;;;;;19.07;11.80;;;;;;;;;;5060667;28;20434;-58
2021/12/30 06:31:12;;;;;;;20.03;12.07;;;;;;;;;;5072161;28;20560;-59
2021/12/30 06:33:38;;;;;;;20.17;10.98;;;;;;;;;;5060442;28;20451;-59
2021/12/30 06:36:04;;;;;;;20.98;10.95;;;;;;;;;;5054138;28;20119;-59
2021/12/30 06:38:29;;;;;;;14.25;10.27;;;;;;;;;;5063140;28;20491;-59
2021/12/30 06:40:54;;;;;;;12.63;8.65;;;;;;;;;;5050302;28;20037;-59
2021/12/30 06:43:19;;;;;;;12.68;9.07;;;;;;;;;;5064307;28;20020;-59
2021/12/30 06:45:45;;;;;;;13.43;8.53;;;;;;;;;;5068554;28;20037;-59
2021/12/30 06:48:14;;;;;;;11.48;8.32;;;;;;;;;;5069520;28;20472;-59
2021/12/30 06:50:39;;;;;;;11.93;8.82;;;;;;;;;;5051832;28;20407;-59
2021/12/30 06:53:04;;;;;;;11.67;7.73;;;;;;;;;;5051584;28;20021;-59
2021/12/30 06:55:29;;;;;;;13.48;8.40;;;;;;;;;;5057614;28;20463;-60
2021/12/30 06:57:54;;;;;;;12.07;8.17;;;;;;;;;;5052644;28;20020;-59
2021/12/30 07:00:21;;;;;;;11.70;7.93;;;;;;;;;;5048919;28;20447;-59
2021/12/30 07:02:46;;;;;;;10.45;6.70;;;;;;;;;;5056395;28;20013;-59
2021/12/30 07:05:11;;;;;;;10.48;7.00;;;;;;;;;;5049239;28;20121;-59
2021/12/30 07:07:36;;;;;;;7.68;6.22;;;;;;;;;;5047636;28;20021;-59
2021/12/30 07:10:03;;;;;;;7.70;5.80;;;;;;;;;;5048333;28;20067;-59
2021/12/30 07:12:28;;;;;;;9.70;6.47;;;;;;;;;;5050040;28;20025;-59
2021/12/30 07:14:53;;;;;;;7.60;6.07;;;;;;;;;;5052110;28;20101;-59
2021/12/30 07:17:18;;;;;;;7.30;6.55;;;;;;;;;;5052271;28;20512;-59
2021/12/30 07:19:43;;;;;;;12.68;7.88;;;;;;;;;;5069372;28;20975;-59
2021/12/30 07:22:09;;;;;;;9.77;7.97;;;;;;;;;;5070080;28;20085;-58
2021/12/30 07:24:34;;;;;;;10.50;8.23;;;;;;;;;;5068968;28;20036;-59
2021/12/30 07:26:59;;;;;;;12.13;9.07;;;;;;;;;;5049871;28;20442;-59
2021/12/30 07:29:24;;;;;;;14.93;10.03;;;;;;;;;;5050095;28;20037;-59
2021/12/30 07:31:49;;;;;;;13.82;10.82;;;;;;;;;;5049545;28;20024;-59
2021/12/30 07:34:14;;;;;;;22.10;14.70;;;;;;;;;;5048755;28;20041;-60
2021/12/30 07:36:40;;;;;;;19.08;15.13;;;;;;;;;;5049228;28;20401;-59
2021/12/30 07:39:05;;;;;;;20.48;14.98;;;;;;;;;;5049448;28;20410;-59
2021/12/30 07:41:30;;;;;;;25.75;14.70;;;;;;;;;;5049784;28;20017;-59
2021/12/30 07:43:55;;;;;;;22.77;16.33;;;;;;;;;;5050354;28;20031;-59
2021/12/30 07:46:20;;;;;;;21.87;16.60;;;;;;;;;;5049804;28;20035;-59
2021/12/30 07:48:45;;;;;;;29.33;19.90;;;;;;;;;;5049799;28;20079;-59
2021/12/30 07:51:10;;;;;;;22.38;17.33;;;;;;;;;;5050667;28;20037;-59
2021/12/30 07:53:37;;;;;;;27.40;18.87;;;;;;;;;;5049079;28;20427;-59
2021/12/30 07:56:02;;;;;;;24.33;15.60;;;;;;;;;;5053717;28;20039;-60
2021/12/30 07:58:28;;;;;;;20.75;16.63;;;;;;;;;;5058275;28;20025;-60
2021/12/30 08:00:53;;;;;;;20.88;14.23;;;;;;;;;;5048566;28;20037;-59
2021/12/30 08:03:19;;;;;;;17.37;14.00;;;;;;;;;;5050384;28;20041;-58
2021/12/30 08:05:45;;;;;;;18.13;14.73;;;;;;;;;;5049636;28;20099;-60
2021/12/30 08:08:10;;;;;;;16.80;13.50;;;;;;;;;;5061548;28;20029;-59
2021/12/30 08:10:35;;;;;;;13.50;11.77;;;;;;;;;;5048521;28;20094;-60
2021/12/30 08:13:01;;;;;;;15.52;13.93;;;;;;;;;;5055656;28;20040;-59
2021/12/30 08:15:26;;;;;;;19.92;15.43;;;;;;;;;;5047886;28;20079;-59
2021/12/30 08:17:51;;;;;;;21.97;17.30;;;;;;;;;;5052026;28;20041;-59
2021/12/30 08:20:18;;;;;;;18.50;16.45;;;;;;;;;;5052695;28;20033;-59
2021/12/30 08:22:44;;;;;;;21.52;18.85;;;;;;;;;;5050846;28;20151;-59
2021/12/30 08:25:09;;;;;;;23.90;19.38;;;;;;;;;;5054135;28;20517;-59
2021/12/30 08:27:35;;;;;;;22.50;20.05;;;;;;;;;;5053242;28;20020;-58
2021/12/30 08:30:00;;;;;;;24.60;21.08;;;;;;;;;;5049244;28;20067;-59
2021/12/30 08:32:25;;;;;;;26.30;19.97;;;;;;;;;;5053553;28;20267;-60
2021/12/30 08:34:50;;;;;;;31.17;23.33;;;;;;;;;;5052031;28;20806;-59
2021/12/30 08:37:16;;;;;;;23.45;19.40;;;;;;;;;;5053770;28;20462;-59
2021/12/30 08:39:41;;;;;;;27.02;22.75;;;;;;;;;;5051801;28;20391;-58
2021/12/30 08:42:17;;;;;;;23.23;20.63;;;;;;;;;;5053676;28;20105;-58
2021/12/30 08:44:42;;;;;;;35.25;25.23;;;;;;;;;;5052090;28;20112;-59
2021/12/30 08:47:07;;;;;;;30.30;21.42;;;;;;;;;;5053785;28;20160;-58
2021/12/30 08:49:32;;;;;;;30.60;25.83;;;;;;;;;;5052385;28;20522;-59
2021/12/30 08:51:57;;;;;;;30.95;25.08;;;;;;;;;;5053708;28;20032;-59
2021/12/30 08:54:23;;;;;;;33.40;26.83;;;;;;;;;;5052068;28;20090;-58
2021/12/30 08:56:48;;;;;;;34.05;26.08;;;;;;;;;;5053628;28;20357;-58
2021/12/30 08:59:14;;;;;;;29.73;26.48;;;;;;;;;;5055791;28;20041;-58
2021/12/30 09:01:39;;;;;;;28.13;23.52;;;;;;;;;;5073355;28;20064;-59
2021/12/30 09:04:04;;;;;;;31.00;25.80;;;;;;;;;;5066960;28;20020;-58
2021/12/30 09:06:29;;;;;;;30.08;26.58;;;;;;;;;;5032322;28;20496;-59
2021/12/30 09:08:55;;;;;;;26.03;21.73;;;;;;;;;;5031617;28;20071;-58
2021/12/30 09:11:20;;;;;;;27.50;22.20;;;;;;;;;;5032049;28;20029;-59
2021/12/30 09:13:45;;;;;;;25.48;21.55;;;;;;;;;;5033162;28;20388;-58
2021/12/30 09:16:10;;;;;;;25.55;20.05;;;;;;;;;;5031721;28;20084;-59
2021/12/30 09:18:35;;;;;;;24.60;20.13;;;;;;;;;;5031811;28;20025;-59
2021/12/30 09:21:00;;;;;;;20.60;17.30;;;;;;;;;;5030596;28;20187;-58
2021/12/30 09:23:26;;;;;;;20.00;17.87;;;;;;;;;;5032637;28;20028;-58
2021/12/30 09:25:53;;;;;;;19.40;15.77;;;;;;;;;;5031896;28;20663;-59
2021/12/30 09:28:18;;;;;;;15.43;12.93;;;;;;;;;;5032753;28;20389;-58
2021/12/30 09:30:45;;;;;;;17.10;14.52;;;;;;;;;;5050389;28;20043;-59
2021/12/30 09:33:15;;;;;;;15.02;13.05;;;;;;;;;;5073141;28;20032;-58
2021/12/30 09:35:40;;;;;;;19.33;13.55;;;;;;;;;;5071372;28;20037;-59
2021/12/30 09:38:05;;;;;;;12.18;10.88;;;;;;;;;;5072123;28;20038;-58
2021/12/30 09:40:30;;;;;;;11.90;10.80;;;;;;;;;;5070256;28;20060;-59
2021/12/30 09:43:01;;;;;;;14.30;9.97;;;;;;;;;;5052519;28;20388;-59
2021/12/30 09:45:27;;;;;;;11.05;9.98;;;;;;;;;;5059092;28;20036;-60
2021/12/30 09:47:54;;;;;;;11.02;8.85;;;;;;;;;;5072229;28;20087;-58
2021/12/30 09:50:20;;;;;;;10.07;9.13;;;;;;;;;;5071355;28;20506;-59
2021/12/30 09:52:45;;;;;;;9.70;8.60;;;;;;;;;;5064201;28;20025;-59
2021/12/30 09:55:11;;;;;;;13.75;10.57;;;;;;;;;;5047223;28;20040;-58
2021/12/30 09:57:37;;;;;;;9.13;8.17;;;;;;;;;;5048779;28;20035;-59
2021/12/30 10:00:04;;;;;;;11.18;9.90;;;;;;;;;;5048125;28;20466;-58
2021/12/30 10:02:29;;;;;;;15.77;8.30;;;;;;;;;;5060325;28;20028;-59
2021/12/30 10:05:13;;;;;;;11.50;10.33;;;;;;;;;;5047283;28;20029;-59
2021/12/30 10:07:41;;;;;;;15.80;9.68;;;;;;;;;;5052084;28;20095;-59
2021/12/30 10:10:25;;;;;;;10.85;9.10;;;;;;;;;;5032958;28;20033;-59
2021/12/30 10:12:50;;;;;;;13.07;9.25;;;;;;;;;;5044050;28;20060;-59
2021/12/30 10:15:16;;;;;;;13.97;10.80;;;;;;;;;;5055688;28;20075;-58
2021/12/30 10:17:41;;;;;;;11.05;8.13;;;;;;;;;;5059347;28;20044;-58
2021/12/30 10:20:16;;;;;;;17.70;10.75;;;;;;;;;;5070718;28;20052;-59
2021/12/30 10:22:42;;;;;;;11.68;7.88;;;;;;;;;;5071453;28;20492;-58
2021/12/30 10:25:45;;;;;;;11.45;8.10;;;;;;;;;;5067767;28;20136;-59
2021/12/30 10:28:19;;;;;;;17.17;8.73;;;;;;;;;;5020992;28;20034;-58
2021/12/30 10:30:45;;;;;;;9.80;8.23;;;;;;;;;;5024966;28;20041;-58
2021/12/30 10:33:11;;;;;;;11.32;6.18;;;;;;;;;;5030307;28;20041;-59
2021/12/30 10:35:37;;;;;;;11.05;5.78;;;;;;;;;;5046403;28;20064;-58
2021/12/30 10:38:04;;;;;;;10.07;7.13;;;;;;;;;;5050758;28;20527;-59
2021/12/30 10:40:31;;;;;;;6.80;4.97;;;;;;;;;;5049008;28;20048;-58
2021/12/30 10:43:12;;;;;;;18.20;6.30;;;;;;;;;;5058561;28;20434;-58
2021/12/30 10:45:37;;;;;;;6.53;5.25;;;;;;;;;;5070061;28;20475;-59
2021/12/30 10:48:02;;;;;;;9.43;5.33;;;;;;;;;;5055654;28;20074;-59
2021/12/30 10:50:27;;;;;;;18.92;5.78;;;;;;;;;;5049279;28;20089;-59
2021/12/30 10:52:54;;;;;;;16.25;7.22;;;;;;;;;;5051028;28;20020;-59
2021/12/30 10:55:20;;;;;;;6.35;5.63;;;;;;;;;;5047044;28;20044;-59
2021/12/30 10:57:45;;;;;;;9.40;6.38;;;;;;;;;;5051163;28;20020;-59
2021/12/30 11:00:23;;;;;;;10.35;5.60;;;;;;;;;;5049633;28;20120;-59
2021/12/30 11:02:48;;;;;;;14.40;6.93;;;;;;;;;;5051280;28;20499;-59
2021/12/30 11:05:13;;;;;;;13.70;5.43;;;;;;;;;;5050039;28;20033;-59
2021/12/30 11:07:42;;;;;;;13.65;7.07;;;;;;;;;;5068825;28;20017;-59
2021/12/30 11:10:07;;;;;;;13.18;4.20;;;;;;;;;;5069240;28;20392;-58
2021/12/30 11:12:34;;;;;;;8.73;5.47;;;;;;;;;;5051444;28;20017;-59
2021/12/30 11:15:06;;;;;;;6.88;3.65;;;;;;;;;;5049528;28;20788;-59
2021/12/30 11:17:36;;;;;;;11.80;6.53;;;;;;;;;;5062914;28;20574;-59
2021/12/30 11:20:04;;;;;;;14.43;5.10;;;;;;;;;;5058210;28;20633;-59
2021/12/30 11:22:30;;;;;;;13.15;5.70;;;;;;;;;;5066024;28;20021;-59
2021/12/30 11:24:59;;;;;;;13.45;5.43;;;;;;;;;;5048467;28;20503;-60
2021/12/30 11:27:25;;;;;;;16.13;7.65;;;;;;;;;;5049573;28;20387;-60
2021/12/30 11:29:52;;;;;;;10.68;5.70;;;;;;;;;;5048951;28;20033;-59
2021/12/30 11:32:19;;;;;;;11.27;4.78;;;;;;;;;;5062546;28;20463;-60
2021/12/30 11:34:45;;;;;;;10.75;4.80;;;;;;;;;;5069078;28;20500;-60
2021/12/30 11:37:12;;;;;;;12.60;4.93;;;;;;;;;;5053713;28;20485;-59
2021/12/30 11:39:40;;;;;;;16.15;7.68;;;;;;;;;;5049362;28;20492;-59
2021/12/30 11:42:08;;;;;;;10.98;5.63;;;;;;;;;;5070671;28;20051;-59
2021/12/30 11:44:35;;;;;;;16.92;8.30;;;;;;;;;;5061758;28;20031;-59
2021/12/30 11:47:00;;;;;;;12.02;6.97;;;;;;;;;;5050841;28;20107;-59
2021/12/30 11:49:45;;;;;;;14.90;8.13;;;;;;;;;;5049955;28;20128;-59
2021/12/30 11:52:10;;;;;;;13.38;5.57;;;;;;;;;;5049281;28;20033;-60
2021/12/30 11:54:40;;;;;;;13.70;7.47;;;;;;;;;;5048632;28;20094;-59
2021/12/30 11:57:25;;;;;;;20.52;8.98;;;;;;;;;;5047176;28;20017;-59
2021/12/30 11:59:50;;;;;;;13.60;7.28;;;;;;;;;;5050763;28;20052;-60
2021/12/30 12:02:32;;;;;;;16.47;9.27;;;;;;;;;;5050836;28;20488;-59
2021/12/30 12:04:57;;;;;;;23.20;8.20;;;;;;;;;;5049041;28;20090;-59
2021/12/30 12:07:22;;;;;;;9.35;5.88;;;;;;;;;;5050267;28;20024;-59
2021/12/30 12:09:48;;;;;;;22.08;9.45;;;;;;;;;;5049951;28;20037;-59
2021/12/30 12:12:14;;;;;;;18.80;6.55;;;;;;;;;;5050182;28;20090;-59
2021/12/30 12:15:00;;;;;;;16.05;7.63;;;;;;;;;;5048671;28;20500;-59
2021/12/30 12:17:30;;;;;;;14.07;6.13;;;;;;;;;;5047015;28;20110;-58
2021/12/30 12:19:56;;;;;;;11.88;5.93;;;;;;;;;;5049091;28;20033;-59
2021/12/30 12:22:21;;;;;;;13.57;5.45;;;;;;;;;;5049069;28;20069;-59
2021/12/30 12:24:48;;;;;;;19.58;7.57;;;;;;;;;;5048323;28;20068;-59
2021/12/30 12:27:19;;;;;;;10.85;5.82;;;;;;;;;;5049757;28;20028;-59
2021/12/30 12:29:44;;;;;;;16.77;8.70;;;;;;;;;;5049116;28;20044;-59
2021/12/30 12:32:11;;;;;;;16.63;6.43;;;;;;;;;;5053385;28;20024;-59
2021/12/30 12:34:37;;;;;;;14.60;6.50;;;;;;;;;;5054786;28;20047;-59
2021/12/30 12:37:03;;;;;;;18.90;7.88;;;;;;;;;;5046657;28;20464;-59
2021/12/30 12:39:32;;;;;;;15.02;5.07;;;;;;;;;;5047263;28;20120;-59
2021/12/30 12:41:57;;;;;;;24.38;7.88;;;;;;;;;;5041834;28;20083;-59
2021/12/30 12:44:22;;;;;;;10.95;6.13;;;;;;;;;;5049318;28;20506;-59
2021/12/30 12:46:49;;;;;;;16.52;5.70;;;;;;;;;;5047341;28;20013;-59
2021/12/30 12:49:15;;;;;;;17.90;7.13;;;;;;;;;;5049027;28;20536;-59
2021/12/30 12:51:51;;;;;;;17.80;4.95;;;;;;;;;;5051171;28;20013;-58
2021/12/30 12:54:31;;;;;;;12.18;4.93;;;;;;;;;;5049119;28;20043;-59
2021/12/30 12:57:03;;;;;;;26.15;6.40;;;;;;;;;;5050035;28;20017;-59
2021/12/30 12:59:33;;;;;;;18.52;6.93;;;;;;;;;;5049894;28;20034;-59
2021/12/30 13:01:58;;;;;;;21.48;7.28;;;;;;;;;;5068784;28;20073;-60
2021/12/30 13:04:23;;;;;;;20.88;7.78;;;;;;;;;;5069455;28;20029;-59
2021/12/30 13:06:49;;;;;;;10.45;5.20;;;;;;;;;;5058053;28;20032;-59
2021/12/30 13:09:16;;;;;;;17.25;5.20;;;;;;;;;;5068663;28;20059;-60
2021/12/30 13:11:42;;;;;;;13.98;5.28;;;;;;;;;;5056195;28;20024;-59
2021/12/30 13:14:19;;;;;;;12.40;6.72;;;;;;;;;;5070109;28;20035;-59
2021/12/30 13:16:44;;;;;;;19.90;6.55;;;;;;;;;;5071664;28;20045;-59
2021/12/30 13:19:18;;;;;;;12.98;6.70;;;;;;;;;;5072298;28;20509;-59
2021/12/30 13:21:46;;;;;;;16.55;7.05;;;;;;;;;;5073643;28;20021;-59
2021/12/30 13:24:50;;;;;;;10.13;6.97;;;;;;;;;;5064212;28;20109;-59
2021/12/30 13:27:15;;;;;;;14.02;4.40;;;;;;;;;;4990861;28;20042;-59
2021/12/30 13:29:41;;;;;;;17.70;5.43;;;;;;;;;;4989417;28;20038;-59
2021/12/30 13:32:10;;;;;;;13.93;4.68;;;;;;;;;;5018793;28;20679;-58
2021/12/30 13:34:36;;;;;;;25.00;7.65;;;;;;;;;;5050949;28;20037;-58
2021/12/30 13:37:15;;;;;;;13.85;5.13;;;;;;;;;;5052760;28;20070;-59
2021/12/30 13:39:41;;;;;;;17.48;5.40;;;;;;;;;;5050778;28;20072;-59
2021/12/30 13:42:10;;;;;;;13.48;6.13;;;;;;;;;;5051146;28;20013;-58
2021/12/30 13:44:39;;;;;;;13.80;6.32;;;;;;;;;;5050653;28;20047;-59
2021/12/30 13:47:17;;;;;;;9.18;4.70;;;;;;;;;;5047507;28;20021;-59
2021/12/30 13:49:42;;;;;;;11.85;5.97;;;;;;;;;;5045062;28;20132;-59
2021/12/30 13:52:08;;;;;;;17.00;8.23;;;;;;;;;;5050360;28;20108;-59
2021/12/30 13:54:33;;;;;;;11.95;5.43;;;;;;;;;;5050169;28;20103;-59
2021/12/30 13:56:58;;;;;;;14.07;6.03;;;;;;;;;;5048623;28;20017;-59
2021/12/30 13:59:28;;;;;;;11.82;4.82;;;;;;;;;;5052818;28;20373;-59
2021/12/30 14:01:53;;;;;;;12.57;7.32;;;;;;;;;;5053872;28;20067;-59
2021/12/30 14:04:22;;;;;;;16.40;5.78;;;;;;;;;;5047629;28;20049;-59
2021/12/30 14:06:47;;;;;;;;;;;;;;;;;;5049980;28;20075;-59
2021/12/30 14:09:14;;;;;;;12.00;5.47;;;;;;;;;;5050534;28;19909;-59
2021/12/30 14:11:40;;;;;;;13.50;6.18;;;;;;;;;;5048868;28;20540;-59
2021/12/30 14:14:08;;;;;;;12.48;7.30;;;;;;;;;;5044963;28;20025;-58
2021/12/30 14:17:00;;;;;;;13.15;5.00;;;;;;;;;;5050903;28;20037;-59
2021/12/30 14:19:26;;;;;;;15.80;4.88;;;;;;;;;;5049530;28;20068;-59
2021/12/30 14:21:52;;;;;;;28.02;6.93;;;;;;;;;;5045969;28;20089;-59